Terminal Aerodrome Forecast
Issued by NWS

Home | Current Version | Previous Version | Text Only | Print | Product List | Glossary Off
Versions: 1 2 3 4 5 6 7 8 9 10 11 12 13 14

000
FTUS45 KGGW 201128
TAFOLF
TAF
KOLF 201128Z 2012/2112 05005KT P6SM SCT150
     FM201800 09010KT P6SM FEW110
     FM210000 07013G21KT P6SM FEW110
     FM210500 06010KT P6SM SCT230
     FM210900 04006KT P6SM SCT150=

USA.gov is the U.S. government's official web portal to all federal, state and local government web resources and services.